Time;durP1;ratioP1;P1;durP2;ratioP2;P2;SDS_P1;SDS_P2;PMS_P1;PMS_P2;Temp;Humidity;BMP_temperature;BMP_pressure;BME280_temperature;BME280_humidity;BME280_pressure;Samples;Min_cycle;Max_cycle;Signal;HPM_P1;HPM_P2
2023/09/19 06:42:31;;;;;;;8.20;1.83;;;;;;;14.92;97.04;96503.72;2099884;27;20570;-66
2023/09/19 06:44:56;;;;;;;4.85;1.90;;;;;;;15.02;96.23;96512.75;2115806;27;20541;-68
2023/09/19 06:47:16;;;;;;;6.82;2.00;;;;;;;15.17;95.73;96511.75;2100979;27;20908;-66
2023/09/19 06:49:36;;;;;;;7.18;1.65;;;;;;;15.04;95.04;96513.47;2087331;28;20576;-66
2023/09/19 06:51:59;;;;;;;8.10;1.70;;;;;;;15.00;95.12;96528.59;2084104;28;20557;-66
2023/09/19 06:54:31;;;;;;;7.55;1.80;;;;;;;14.83;95.87;96516.53;2084652;28;21041;-66
2023/09/19 06:57:03;;;;;;;9.77;2.05;;;;;;;14.84;97.32;96526.13;2108472;27;20547;-66
2023/09/19 06:59:37;;;;;;;6.38;2.30;;;;;;;14.97;97.45;96541.09;2083998;28;20565;-66
2023/09/19 07:02:08;;;;;;;5.93;1.90;;;;;;;14.86;95.81;96523.38;2083789;28;20558;-66
2023/09/19 07:04:41;;;;;;;7.25;1.80;;;;;;;14.93;95.23;96535.22;2091828;27;21051;-66
2023/09/19 07:07:13;;;;;;;7.82;2.03;;;;;;;14.79;95.18;96553.63;2084791;28;20563;-66
2023/09/19 07:09:45;;;;;;;8.07;2.05;;;;;;;14.87;96.51;96559.25;2099560;27;20559;-66
2023/09/19 07:12:13;;;;;;;6.13;1.80;;;;;;;14.81;95.69;96554.38;2092827;27;20561;-66
2023/09/19 07:14:40;;;;;;;7.18;1.80;;;;;;;15.07;95.91;96560.63;2083238;28;20935;-66
2023/09/19 07:15:46;;;;;;;10.65;2.10;;;;;;;15.16;94.96;96564.41;2079033;28;20201;-66
2023/09/19 07:16:49;;;;;;;9.18;2.10;;;;;;;15.33;93.79;96558.09;2074977;28;20197;-66
2023/09/19 07:17:55;;;;;;;9.15;1.75;;;;;;;15.45;93.41;96566.94;2076598;28;20694;-66
2023/09/19 07:18:58;;;;;;;8.55;2.13;;;;;;;15.53;93.13;96562.03;2074534;28;20208;-66
2023/09/19 07:19:59;;;;;;;10.55;2.28;;;;;;;15.88;91.94;96561.50;2075180;28;20247;-66
2023/09/19 07:21:04;;;;;;;7.55;1.60;;;;;;;15.91;91.85;96560.44;2074129;28;20220;-66
2023/09/19 07:22:07;;;;;;;12.65;2.45;;;;;;;16.14;91.33;96562.34;2073308;28;20252;-66
2023/09/19 07:23:09;;;;;;;6.38;1.95;;;;;;;16.17;90.65;96563.94;2075150;28;20263;-66
2023/09/19 07:24:10;;;;;;;6.82;2.03;;;;;;;16.34;90.29;96560.16;2074734;28;20227;-66
2023/09/19 07:25:13;;;;;;;5.80;1.63;;;;;;;16.40;89.68;96566.78;2070743;28;20201;-66
2023/09/19 07:26:16;;;;;;;6.68;2.15;;;;;;;16.67;89.20;96574.56;2071102;28;20736;-66
2023/09/19 07:27:18;;;;;;;5.75;1.92;;;;;;;16.59;88.62;96571.63;2073356;28;20209;-66
2023/09/19 07:28:19;;;;;;;9.05;2.33;;;;;;;16.73;86.59;96568.84;2070906;28;20195;-66
2023/09/19 07:29:21;;;;;;;9.48;1.92;;;;;;;16.58;87.13;96570.78;2070821;28;20203;-66
2023/09/19 07:30:23;;;;;;;9.82;1.95;;;;;;;16.55;88.28;96570.16;2072371;28;20198;-66
2023/09/19 07:31:25;;;;;;;6.22;1.92;;;;;;;16.41;89.46;96561.41;2071724;28;20217;-66
2023/09/19 07:32:26;;;;;;;4.38;1.83;;;;;;;16.39;89.27;96565.94;2073966;28;20198;-66
2023/09/19 07:37:17;;;;;;;5.20;1.63;;;;;;;15.83;90.97;96574.13;2085859;27;20575;-66
2023/09/19 07:38:18;;;;;;;5.40;2.03;;;;;;;16.09;90.94;96577.63;2086616;28;20309;-66
2023/09/19 07:39:20;;;;;;;3.97;2.08;;;;;;;16.11;89.49;96574.88;2087602;28;20243;-66
2023/09/19 07:40:26;;;;;;;11.15;1.40;;;;;;;16.26;87.30;96575.63;2085796;28;20251;-66
2023/09/19 07:41:30;;;;;;;12.60;1.70;;;;;;;16.36;87.73;96571.41;2072129;28;20185;-66
2023/09/19 07:42:31;;;;;;;5.10;1.52;;;;;;;16.42;89.65;96575.44;2069922;28;20208;-66
2023/09/19 07:43:33;;;;;;;4.88;1.70;;;;;;;16.35;88.64;96577.63;2070477;28;20213;-66
2023/09/19 07:44:36;;;;;;;3.90;1.73;;;;;;;16.50;88.75;96578.38;2071694;28;20207;-66
2023/09/19 07:45:37;;;;;;;5.20;1.40;;;;;;;16.59;87.76;96576.88;2071292;28;20202;-66
2023/09/19 07:46:39;;;;;;;5.63;1.73;;;;;;;16.67;88.73;96571.94;2071492;28;20199;-66
2023/09/19 07:47:45;;;;;;;4.15;1.98;;;;;;;16.48;86.78;96569.72;2070718;28;20229;-67
2023/09/19 07:48:48;;;;;;;4.18;1.80;;;;;;;16.63;85.48;96578.34;2069371;28;20195;-66
2023/09/19 07:49:50;;;;;;;3.60;1.63;;;;;;;16.73;86.22;96573.28;2070361;28;20201;-66
2023/09/19 07:50:51;;;;;;;5.55;1.77;;;;;;;16.68;85.46;96573.59;2071310;28;20803;-66
2023/09/19 07:51:54;;;;;;;4.72;2.17;;;;;;;16.46;86.02;96571.63;2072606;28;20199;-68
2023/09/19 07:52:56;;;;;;;7.30;1.60;;;;;;;16.29;87.48;96576.28;2073676;28;20283;-68
2023/09/19 07:53:58;;;;;;;6.38;1.52;;;;;;;16.34;86.69;96575.97;2073726;28;20202;-68
2023/09/19 07:55:01;;;;;;;8.10;1.55;;;;;;;16.25;86.71;96572.19;2070929;28;20682;-68
2023/09/19 07:56:07;;;;;;;5.30;1.88;;;;;;;16.20;88.37;96578.69;2070464;28;20224;-68
2023/09/19 07:57:09;;;;;;;5.22;1.50;;;;;;;16.23;88.41;96586.41;2071465;28;20214;-68
2023/09/19 07:58:10;;;;;;;6.13;1.55;;;;;;;16.11;88.59;96586.28;2072810;28;20740;-68
2023/09/19 07:59:13;;;;;;;3.80;1.50;;;;;;;16.04;87.91;96589.44;2072563;28;20198;-68
2023/09/19 08:00:15;;;;;;;2.50;1.13;;;;;;;16.01;87.00;96585.22;2072042;28;20206;-68
2023/09/19 08:01:17;;;;;;;2.38;1.20;;;;;;;16.06;88.07;96585.75;2072013;28;20218;-68
2023/09/19 08:03:42;;;;;;;7.28;1.80;;;;;;;16.22;88.75;96595.25;2083879;28;20583;-66
2023/09/19 08:06:04;;;;;;;4.28;1.45;;;;;;;16.14;88.16;96596.59;2080310;28;20573;-66
2023/09/19 08:07:05;;;;;;;3.40;1.17;;;;;;;16.20;88.24;96599.75;2081074;28;20206;-67
2023/09/19 08:08:07;;;;;;;2.55;1.13;;;;;;;16.29;86.88;96599.13;2081023;28;20208;-66
2023/09/19 08:09:11;;;;;;;3.78;1.50;;;;;;;16.37;86.26;96593.34;2081684;28;20217;-66
2023/09/19 08:10:13;;;;;;;4.38;1.75;;;;;;;16.56;86.49;96591.13;2080152;28;20198;-66
2023/09/19 08:11:21;;;;;;;5.95;1.50;;;;;;;17.06;86.18;96596.44;2077140;28;20248;-66
2023/09/19 08:12:22;;;;;;;4.60;1.58;;;;;;;17.35;85.35;96597.94;2082133;28;20212;-66
2023/09/19 08:13:25;;;;;;;3.20;1.40;;;;;;;17.47;85.37;96602.28;2081763;28;20201;-66
2023/09/19 08:14:26;;;;;;;4.95;1.35;;;;;;;17.45;82.21;96604.22;2083302;28;20197;-67
2023/09/19 08:15:27;;;;;;;2.55;1.27;;;;;;;17.27;82.62;96604.59;2083161;28;20232;-67
2023/09/19 08:16:29;;;;;;;7.25;1.45;;;;;;;17.24;82.49;96601.34;2077325;28;20657;-67
2023/09/19 08:17:34;;;;;;;5.50;1.17;;;;;;;17.03;85.01;96601.09;2084696;28;20810;-67
2023/09/19 08:18:40;;;;;;;3.25;1.00;;;;;;;17.17;82.54;96600.94;2077342;28;20620;-67
2023/09/19 08:19:44;;;;;;;4.90;1.35;;;;;;;17.29;83.14;96607.97;2080556;28;20205;-67
2023/09/19 08:20:50;;;;;;;9.90;1.83;;;;;;;17.49;82.89;96608.31;2079272;28;20683;-67
2023/09/19 08:21:52;;;;;;;3.35;1.35;;;;;;;17.89;79.97;96607.16;2080577;28;20722;-68
2023/09/19 08:22:54;;;;;;;4.30;1.33;;;;;;;18.24;78.66;96606.31;2081134;28;20256;-68
2023/09/19 08:23:57;;;;;;;3.80;1.25;;;;;;;18.42;77.92;96610.22;2077330;28;20229;-68
2023/09/19 08:24:59;;;;;;;6.65;1.45;;;;;;;18.69;76.04;96609.03;2076155;28;20201;-68
2023/09/19 08:26:06;;;;;;;2.05;1.08;;;;;;;18.65;75.76;96612.03;2075764;28;20701;-68
2023/09/19 08:27:09;;;;;;;5.38;1.40;;;;;;;19.06;75.20;96611.44;2075657;28;20199;-68
2023/09/19 08:28:12;;;;;;;3.30;1.40;;;;;;;19.27;75.74;96613.31;2076574;28;20194;-68
2023/09/19 08:29:14;;;;;;;3.78;1.45;;;;;;;19.08;75.33;96608.66;2078504;28;20225;-68
2023/09/19 08:30:23;;;;;;;3.10;1.15;;;;;;;18.64;74.93;96612.97;2077735;28;20206;-68
2023/09/19 08:31:26;;;;;;;3.85;1.02;;;;;;;18.87;74.52;96611.19;2080999;28;20878;-68
2023/09/19 08:32:28;;;;;;;2.88;1.30;;;;;;;18.42;76.01;96612.00;2078691;28;20716;-68
2023/09/19 08:33:35;;;;;;;5.07;1.80;;;;;;;18.03;78.19;96611.44;2080883;28;20190;-68
2023/09/19 08:34:38;;;;;;;2.17;1.10;;;;;;;18.23;77.34;96620.50;2078070;28;20309;-68
2023/09/19 08:35:41;;;;;;;7.68;1.73;;;;;;;18.51;76.63;96618.38;2078707;28;20217;-68
2023/09/19 08:36:45;;;;;;;7.07;1.73;;;;;;;18.24;77.29;96619.53;2080221;28;20205;-68
2023/09/19 08:37:46;;;;;;;5.13;1.52;;;;;;;18.05;77.80;96612.16;2079311;28;20198;-68
2023/09/19 08:38:49;;;;;;;5.00;1.20;;;;;;;18.63;77.93;96624.50;2078366;28;20197;-68
2023/09/19 08:39:51;;;;;;;5.18;1.60;;;;;;;18.98;73.93;96619.16;2078619;28;20237;-68
2023/09/19 08:40:52;;;;;;;3.60;1.05;;;;;;;19.49;73.61;96620.38;2078612;28;20233;-68
2023/09/19 08:41:58;;;;;;;2.85;1.20;;;;;;;19.41;71.24;96621.00;2079459;28;20226;-68
2023/09/19 08:43:00;;;;;;;4.72;1.42;;;;;;;19.28;71.58;96616.81;2079093;28;20324;-68
2023/09/19 08:44:02;;;;;;;3.40;1.27;;;;;;;19.11;70.12;96618.16;2078142;28;20197;-68
2023/09/19 08:45:05;;;;;;;4.18;1.25;;;;;;;19.07;70.23;96612.28;2079506;28;20261;-68
2023/09/19 08:46:16;;;;;;;4.30;1.25;;;;;;;19.34;69.92;96625.09;2079849;28;20693;-68
2023/09/19 08:47:30;;;;;;;2.17;0.90;;;;;;;18.91;70.21;96612.66;2081728;28;20246;-68
2023/09/19 08:48:34;;;;;;;3.30;1.20;;;;;;;18.64;70.78;96629.69;2076790;28;20308;-68
2023/09/19 08:49:47;;;;;;;2.97;1.33;;;;;;;18.04;72.22;96627.19;2078670;28;20206;-68
2023/09/19 08:50:51;;;;;;;3.15;1.35;;;;;;;18.44;71.53;96626.78;2075911;28;20254;-68
2023/09/19 08:52:05;;;;;;;3.92;1.30;;;;;;;18.86;70.95;96625.38;2076398;28;20625;-68
2023/09/19 08:53:12;;;;;;;3.17;1.13;;;;;;;19.03;70.28;96624.06;2077651;28;20233;-68
2023/09/19 08:54:26;;;;;;;3.97;1.00;;;;;;;18.33;72.46;96625.94;2078996;28;20242;-68
2023/09/19 08:55:28;;;;;;;3.35;1.48;;;;;;;18.79;71.86;96627.63;2081210;28;20205;-67
2023/09/19 08:56:32;;;;;;;3.90;1.50;;;;;;;19.07;71.61;96629.00;2082028;28;20190;-68
2023/09/19 08:57:37;;;;;;;2.70;1.15;;;;;;;19.22;70.82;96629.59;2082617;28;20201;-68
2023/09/19 08:58:51;;;;;;;4.25;1.73;;;;;;;18.95;70.91;96634.44;2080042;28;20200;-68
2023/09/19 08:59:54;;;;;;;2.72;1.10;;;;;;;18.92;70.70;96632.88;2079673;28;20211;-68
2023/09/19 09:01:00;;;;;;;2.63;1.23;;;;;;;18.65;70.94;96633.19;2079954;28;20301;-68
2023/09/19 09:02:03;;;;;;;3.10;1.10;;;;;;;18.66;69.56;96634.88;2084752;28;20198;-68
2023/09/19 09:03:10;;;;;;;5.88;1.10;;;;;;;18.77;70.06;96635.69;2078670;28;20226;-68
2023/09/19 09:04:12;;;;;;;10.10;1.67;;;;;;;18.31;69.73;96638.41;2078839;28;20235;-68
2023/09/19 09:05:16;;;;;;;4.35;1.65;;;;;;;18.08;69.83;96638.34;2076540;28;20618;-68
2023/09/19 09:06:20;;;;;;;3.30;1.20;;;;;;;18.09;71.18;96635.59;2076544;28;20221;-68
2023/09/19 09:07:22;;;;;;;8.07;1.45;;;;;;;17.92;71.07;96639.47;2077715;28;20249;-68
2023/09/19 09:08:25;;;;;;;3.70;1.35;;;;;;;17.76;70.81;96633.63;2080757;28;20680;-68
2023/09/19 09:09:28;;;;;;;5.57;1.25;;;;;;;17.69;71.24;96630.63;2073416;28;20198;-68
2023/09/19 09:10:29;;;;;;;3.90;1.17;;;;;;;18.01;70.30;96629.22;2071428;28;20644;-68
2023/09/19 09:11:33;;;;;;;4.90;1.17;;;;;;;18.41;69.96;96632.31;2080932;28;20558;-68
2023/09/19 09:12:36;;;;;;;4.25;1.10;;;;;;;18.52;69.18;96635.94;2078082;28;20207;-68
2023/09/19 09:13:38;;;;;;;4.68;1.23;;;;;;;18.08;69.89;96630.41;2078473;28;20229;-68
2023/09/19 09:14:45;;;;;;;3.80;1.50;;;;;;;17.66;69.59;96638.78;2078888;28;20204;-68
2023/09/19 09:15:48;;;;;;;4.03;1.23;;;;;;;18.02;70.83;96644.94;2078571;28;20221;-68
2023/09/19 09:16:50;;;;;;;3.88;1.20;;;;;;;17.81;71.12;96641.22;2078115;28;20194;-68
2023/09/19 09:17:55;;;;;;;3.60;1.30;;;;;;;17.63;71.49;96639.81;2072975;28;20200;-68
2023/09/19 09:18:57;;;;;;;4.28;1.30;;;;;;;17.94;70.37;96642.88;2073920;28;20654;-68
2023/09/19 09:19:58;;;;;;;4.43;1.55;;;;;;;17.71;69.23;96633.13;2073250;28;20255;-68
2023/09/19 09:21:00;;;;;;;5.57;1.60;;;;;;;17.43;71.35;96643.06;2075899;28;20244;-68
2023/09/19 09:22:11;;;;;;;6.78;1.70;;;;;;;17.33;72.23;96640.28;2074656;28;20197;-68
2023/09/19 09:23:13;;;;;;;5.30;1.55;;;;;;;17.45;71.80;96631.44;2072939;28;20252;-68
2023/09/19 09:24:33;;;;;;;2.72;0.90;;;;;;;17.89;71.08;96636.19;2072963;28;20924;-68
2023/09/19 09:25:54;;;;;;;4.40;1.48;;;;;;;18.05;71.75;96641.22;2072923;28;20550;-68
2023/09/19 09:26:57;;;;;;;6.80;1.92;;;;;;;17.91;71.44;96643.06;2070806;28;20202;-68
2023/09/19 09:28:01;;;;;;;3.83;1.15;;;;;;;17.95;71.92;96641.94;2072172;28;20197;-68
2023/09/19 09:29:03;;;;;;;3.40;1.13;;;;;;;17.76;70.12;96636.28;2076388;28;20777;-68
2023/09/19 09:30:07;;;;;;;3.17;1.02;;;;;;;17.54;69.94;96645.78;2073694;28;20700;-68
2023/09/19 09:31:22;;;;;;;6.53;1.67;;;;;;;17.97;69.65;96643.59;2071312;28;20222;-68
2023/09/19 09:32:36;;;;;;;3.85;1.55;;;;;;;18.05;68.14;96642.06;2072598;28;20203;-68
2023/09/19 09:33:41;;;;;;;3.40;1.35;;;;;;;18.24;67.60;96643.31;2072976;28;20312;-68
2023/09/19 09:34:44;;;;;;;6.70;1.75;;;;;;;18.04;68.39;96640.41;2073730;28;20202;-68
2023/09/19 09:36:02;;;;;;;3.30;1.30;;;;;;;17.87;69.51;96644.25;2069870;28;20229;-68
2023/09/19 09:37:04;;;;;;;4.72;1.88;;;;;;;17.66;70.02;96646.69;2070679;28;20607;-68
2023/09/19 09:38:08;;;;;;;6.75;1.42;;;;;;;17.57;70.13;96642.06;2073255;28;20197;-68
2023/09/19 09:39:24;;;;;;;3.60;1.73;;;;;;;18.10;68.21;96649.66;2074545;28;20681;-68
2023/09/19 09:40:45;;;;;;;5.05;2.47;;;;;;;17.84;67.97;96648.91;2075085;28;20771;-68
2023/09/19 09:41:47;;;;;;;4.93;1.38;;;;;;;17.62;69.30;96646.06;2073689;28;20344;-68
2023/09/19 09:42:52;;;;;;;4.20;1.20;;;;;;;17.44;69.24;96637.66;2071704;28;20640;-68
2023/09/19 09:43:54;;;;;;;6.45;1.60;;;;;;;17.21;70.05;96644.63;2071896;28;20213;-68
2023/09/19 09:45:28;;;;;;;8.02;2.50;;;;;;;17.35;70.48;96651.53;2070791;28;20199;-68
2023/09/19 09:46:58;;;;;;;5.38;1.45;;;;;;;17.49;70.42;96644.44;2072670;28;20676;-69
2023/09/19 09:47:57;;;;;;;6.38;1.80;;;;;;;18.56;67.24;96647.94;2074192;28;20565;-68
2023/09/19 09:51:59;;;;;;;5.75;1.30;;;;;;;19.78;63.48;96648.09;2068943;28;20218;-69
2023/09/19 09:53:06;;;;;;;6.45;1.27;;;;;;;19.64;63.39;96638.63;2070390;28;20227;-69
2023/09/19 09:54:15;;;;;;;2.75;1.10;;;;;;;19.80;63.61;96644.34;2068344;28;20199;-68
2023/09/19 09:55:18;;;;;;;2.90;1.00;;;;;;;19.37;64.70;96642.56;2071195;28;20209;-68
2023/09/19 09:56:20;;;;;;;10.48;1.50;;;;;;;19.72;64.15;96642.34;2071737;28;20613;-68
2023/09/19 09:57:23;;;;;;;2.85;1.10;;;;;;;19.84;63.17;96640.50;2070335;28;20225;-69
2023/09/19 09:58:29;;;;;;;4.00;1.35;;;;;;;19.78;64.06;96637.50;2066101;28;20395;-69
2023/09/19 09:59:53;;;;;;;6.13;1.35;;;;;;;20.52;61.12;96645.47;2067698;28;20230;-69
2023/09/19 10:00:59;;;;;;;5.18;1.60;;;;;;;20.55;60.39;96641.72;2073021;28;20310;-68
2023/09/19 10:02:02;;;;;;;5.72;1.40;;;;;;;21.10;59.48;96643.25;2073440;28;20203;-69
2023/09/19 10:03:21;;;;;;;5.90;1.30;;;;;;;20.96;58.77;96641.81;2074108;28;20194;-69
2023/09/19 10:04:35;;;;;;;3.05;1.13;;;;;;;21.05;58.68;96638.34;2072548;28;20207;-69
2023/09/19 10:05:44;;;;;;;3.95;1.40;;;;;;;21.55;58.00;96640.19;2071138;28;20239;-68
2023/09/19 10:06:49;;;;;;;4.70;1.10;;;;;;;22.45;56.29;96637.44;2070751;28;20250;-69
2023/09/19 10:07:53;;;;;;;2.20;1.17;;;;;;;22.62;54.92;96635.84;2073405;28;20212;-69
2023/09/19 10:09:11;;;;;;;3.22;1.02;;;;;;;23.19;54.26;96637.63;2075142;28;20224;-69
2023/09/19 10:10:16;;;;;;;10.35;1.45;;;;;;;21.63;57.29;96629.72;2073728;28;20209;-69
2023/09/19 10:11:19;;;;;;;5.93;1.48;;;;;;;22.07;56.09;96633.78;2073597;28;20245;-69
2023/09/19 10:12:21;;;;;;;4.82;1.00;;;;;;;22.24;55.56;96634.91;2078391;28;20255;-69
2023/09/19 10:13:29;;;;;;;4.13;1.45;;;;;;;22.39;55.15;96633.50;2075588;28;20288;-69
2023/09/19 10:14:34;;;;;;;3.88;1.48;;;;;;;22.83;54.71;96630.31;2074764;28;20206;-69
2023/09/19 10:15:36;;;;;;;4.47;1.20;;;;;;;23.19;53.99;96627.81;2074093;28;20198;-69
2023/09/19 10:16:48;;;;;;;3.92;1.23;;;;;;;23.17;53.03;96629.75;2073299;28;20231;-69
2023/09/19 10:17:54;;;;;;;2.90;1.00;;;;;;;22.66;53.43;96632.75;2074698;28;20801;-69
2023/09/19 10:19:01;;;;;;;4.57;1.20;;;;;;;22.75;53.74;96624.88;2074595;28;20198;-69
2023/09/19 10:20:18;;;;;;;4.53;1.13;;;;;;;23.22;53.19;96622.16;2074763;28;20286;-70
2023/09/19 10:21:22;;;;;;;3.90;1.30;;;;;;;23.09;53.92;96630.47;2070985;28;20761;-70
2023/09/19 10:22:26;;;;;;;4.60;1.45;;;;;;;23.22;54.00;96626.66;2075659;28;20297;-69
2023/09/19 10:23:34;;;;;;;3.78;1.50;;;;;;;23.23;53.42;96618.53;2076553;28;20566;-69
2023/09/19 10:24:38;;;;;;;4.65;1.50;;;;;;;22.54;54.16;96628.59;2073989;28;20202;-69
2023/09/19 10:25:59;;;;;;;4.88;1.63;;;;;;;22.50;55.13;96628.03;2066419;28;20256;-68
2023/09/19 10:27:01;;;;;;;5.70;1.30;;;;;;;22.89;55.02;96618.25;2068829;28;20211;-69
2023/09/19 10:28:10;;;;;;;5.88;1.98;;;;;;;23.61;53.72;96619.28;2073731;28;20285;-69
2023/09/19 10:29:16;;;;;;;5.63;1.30;;;;;;;23.46;52.71;96623.44;2070881;28;20232;-69
2023/09/19 10:30:18;;;;;;;2.75;1.02;;;;;;;23.50;53.19;96613.31;2073471;28;20199;-69
2023/09/19 10:31:21;;;;;;;2.95;1.10;;;;;;;23.53;53.22;96615.69;2073361;28;20312;-69
2023/09/19 10:32:23;;;;;;;5.05;1.35;;;;;;;23.02;53.16;96616.09;2071816;28;20210;-69
2023/09/19 10:33:25;;;;;;;2.55;1.23;;;;;;;22.62;53.14;96623.38;2074641;28;20198;-69
2023/09/19 10:34:30;;;;;;;3.65;1.10;;;;;;;22.28;53.46;96615.00;2073111;28;20198;-69
2023/09/19 10:35:33;;;;;;;4.70;1.52;;;;;;;22.44;53.50;96623.28;2071306;28;20210;-68
2023/09/19 10:36:37;;;;;;;7.13;2.05;;;;;;;20.90;56.20;96627.28;2074425;28;20201;-69
2023/09/19 10:37:40;;;;;;;3.45;1.25;;;;;;;20.05;58.38;96614.03;2073585;28;20934;-68
2023/09/19 10:38:45;;;;;;;3.22;1.48;;;;;;;19.70;59.64;96625.72;2072019;28;20205;-68
2023/09/19 10:39:49;;;;;;;8.15;2.08;;;;;;;19.34;60.79;96641.00;2073365;28;20221;-69
2023/09/19 10:40:53;;;;;;;5.88;1.20;;;;;;;19.14;61.43;96626.69;2072626;28;20228;-68
2023/09/19 10:41:58;;;;;;;3.30;1.17;;;;;;;18.93;62.49;96619.50;2075387;28;20213;-68
2023/09/19 10:43:03;;;;;;;9.73;1.90;;;;;;;18.98;63.23;96624.44;2075240;28;20220;-68
2023/09/19 10:44:06;;;;;;;5.65;1.90;;;;;;;19.58;61.97;96624.09;2073284;28;20202;-68
2023/09/19 10:45:13;;;;;;;2.83;1.33;;;;;;;19.53;62.85;96624.47;2074672;28;20278;-68
2023/09/19 10:46:14;;;;;;;3.60;1.73;;;;;;;19.27;62.46;96634.50;2071465;28;20305;-68
2023/09/19 10:47:19;;;;;;;4.60;1.70;;;;;;;19.29;62.57;96627.28;2074092;28;20222;-68
2023/09/19 10:48:25;;;;;;;4.65;1.45;;;;;;;19.25;61.89;96631.16;2072372;28;20234;-69
2023/09/19 10:49:28;;;;;;;4.15;1.58;;;;;;;19.80;61.20;96639.06;2070345;28;20309;-68
2023/09/19 10:51:05;;;;;;;3.45;1.13;;;;;;;20.21;59.22;96621.56;2072954;28;20208;-68
2023/09/19 10:52:10;;;;;;;3.80;1.20;;;;;;;19.83;60.44;96628.25;2075073;28;20256;-69
2023/09/19 10:53:13;;;;;;;2.95;1.40;;;;;;;19.31;61.05;96617.44;2069606;28;20194;-68
2023/09/19 10:54:18;;;;;;;4.22;1.20;;;;;;;20.12;59.73;96624.13;2072797;28;20653;-68
2023/09/19 10:55:22;;;;;;;5.38;1.40;;;;;;;19.76;59.99;96632.34;2069130;28;20347;-68
2023/09/19 10:56:32;;;;;;;6.30;1.38;;;;;;;19.36;60.76;96628.50;2068597;28;20225;-68
2023/09/19 10:57:34;;;;;;;6.22;1.17;;;;;;;20.60;57.79;96626.25;2072811;28;20300;-68
2023/09/19 10:58:38;;;;;;;3.85;1.27;;;;;;;20.41;58.44;96626.97;2074893;28;20296;-68
2023/09/19 11:00:02;;;;;;;3.25;1.25;;;;;;;19.84;60.11;96626.44;2074128;28;20234;-68
2023/09/19 11:01:15;;;;;;;3.40;1.45;;;;;;;19.86;61.14;96622.69;2071160;28;20218;-68
2023/09/19 11:02:17;;;;;;;3.35;1.30;;;;;;;20.26;60.43;96618.50;2073027;28;20199;-69
2023/09/19 11:03:23;;;;;;;10.18;1.55;;;;;;;20.11;60.61;96622.44;2073891;28;20205;-68
2023/09/19 11:04:33;;;;;;;3.78;1.20;;;;;;;21.43;57.40;96625.31;2072195;28;20794;-68
2023/09/19 11:05:40;;;;;;;4.10;1.10;;;;;;;22.44;55.49;96622.44;2070914;28;20271;-68
2023/09/19 11:06:41;;;;;;;6.90;1.10;;;;;;;23.34;54.36;96624.63;2070397;28;21028;-69
2023/09/19 11:08:04;;;;;;;2.75;1.38;;;;;;;22.98;54.03;96614.69;2074073;28;20710;-68
2023/09/19 11:10:52;;;;;;;8.50;1.30;;;;;;;22.94;50.84;96613.31;2069428;28;20200;-69
2023/09/19 11:11:53;;;;;;;4.15;1.17;;;;;;;21.81;53.13;96602.47;2063002;28;20240;-68
2023/09/19 11:12:56;;;;;;;5.00;1.17;;;;;;;21.85;53.17;96635.75;2063218;28;20296;-68
2023/09/19 11:14:25;;;;;;;5.20;1.52;;;;;;;22.41;52.73;96614.72;2065408;28;20197;-68
2023/09/19 11:15:58;;;;;;;5.38;1.73;;;;;;;23.77;53.59;96620.44;2064667;28;20229;-68
2023/09/19 11:17:15;;;;;;;2.83;1.10;;;;;;;24.59;53.39;96622.94;2061135;28;20350;-68
2023/09/19 11:18:42;;;;;;;3.67;1.75;;;;;;;24.90;51.67;96626.00;2063574;28;20236;-69
2023/09/19 11:21:29;;;;;;;2.72;0.90;;;;;;;24.32;52.68;96622.09;2062914;28;20226;-68
2023/09/19 11:22:56;;;;;;;4.10;1.10;;;;;;;23.73;50.58;96619.06;2064034;28;20248;-69
2023/09/19 11:24:22;;;;;;;4.15;1.40;;;;;;;23.46;50.98;96621.63;2064295;28;20278;-68
2023/09/19 11:25:30;;;;;;;4.50;1.27;;;;;;;23.02;50.48;96607.25;2064752;28;20194;-68
2023/09/19 11:26:47;;;;;;;3.92;1.50;;;;;;;21.93;51.62;96619.09;2053898;28;20728;-68
2023/09/19 11:28:12;;;;;;;5.38;1.38;;;;;;;20.71;55.17;96618.25;2059502;28;20259;-69
2023/09/19 11:29:28;;;;;;;2.88;1.10;;;;;;;20.02;56.51;96603.72;2065972;28;20293;-68
2023/09/19 11:30:32;;;;;;;4.35;1.10;;;;;;;19.84;57.45;96610.53;2063484;28;20206;-68
2023/09/19 11:31:48;;;;;;;3.28;1.20;;;;;;;19.84;58.49;96599.94;2064242;28;20303;-68
2023/09/19 11:33:20;;;;;;;3.00;1.13;;;;;;;20.21;57.68;96610.09;2062481;28;20235;-68
2023/09/19 11:34:37;;;;;;;3.33;1.15;;;;;;;21.01;55.74;96605.94;2060726;28;20250;-68
2023/09/19 11:36:03;;;;;;;4.75;1.20;;;;;;;21.29;56.47;96600.00;2064739;28;20697;-68
2023/09/19 11:37:13;;;;;;;3.03;1.13;;;;;;;21.01;56.77;96597.97;2064688;28;20200;-68
2023/09/19 11:38:15;;;;;;;6.05;1.20;;;;;;;21.30;55.94;96601.69;2063329;28;20201;-68
2023/09/19 11:39:27;;;;;;;2.70;1.20;;;;;;;22.20;54.59;96606.91;2065011;28;20406;-68
2023/09/19 11:40:30;;;;;;;5.30;1.40;;;;;;;22.56;52.38;96599.16;2060988;28;20208;-68
2023/09/19 11:41:39;;;;;;;3.20;1.10;;;;;;;22.89;52.92;96597.78;2061247;28;20202;-68
2023/09/19 11:42:53;;;;;;;4.97;1.65;;;;;;;21.92;54.17;96602.31;2063213;28;20206;-68
2023/09/19 11:44:05;;;;;;;6.20;1.10;;;;;;;21.56;54.84;96595.88;2065987;28;20296;-68
2023/09/19 11:45:07;;;;;;;4.85;1.30;;;;;;;22.09;54.26;96602.59;2065743;28;20201;-68
2023/09/19 11:46:09;;;;;;;3.88;1.40;;;;;;;21.51;54.86;96591.78;2063866;28;20320;-68
2023/09/19 11:47:11;;;;;;;5.00;1.38;;;;;;;22.21;54.67;96597.94;2071322;28;20279;-68
2023/09/19 11:48:15;;;;;;;6.25;1.50;;;;;;;23.26;52.56;96604.06;2071805;28;20209;-68
2023/09/19 11:49:23;;;;;;;3.97;1.30;;;;;;;23.30;51.83;96600.16;2072827;28;20537;-68
2023/09/19 11:50:25;;;;;;;4.88;1.23;;;;;;;22.79;52.97;96594.31;2069611;28;20271;-67
2023/09/19 11:51:26;;;;;;;3.22;1.20;;;;;;;21.92;53.39;96596.19;2073315;28;20202;-68
2023/09/19 11:52:34;;;;;;;4.22;1.67;;;;;;;21.35;54.95;96588.81;2072756;28;20676;-68
2023/09/19 11:53:37;;;;;;;3.05;1.15;;;;;;;21.41;55.28;96590.94;2070591;28;20237;-68
2023/09/19 11:54:42;;;;;;;2.67;0.98;;;;;;;21.52;54.94;96595.25;2070511;28;20747;-69
2023/09/19 11:55:45;;;;;;;3.05;1.15;;;;;;;22.21;53.68;96593.47;2071040;28;20232;-68
2023/09/19 11:56:50;;;;;;;4.45;1.10;;;;;;;21.97;53.95;96594.75;2073350;28;20658;-68
2023/09/19 11:57:55;;;;;;;4.55;1.38;;;;;;;21.47;55.53;96586.88;2071186;28;20220;-68
2023/09/19 11:58:57;;;;;;;3.03;1.25;;;;;;;20.95;56.64;96593.22;2068724;28;20309;-68
2023/09/19 12:00:04;;;;;;;3.53;1.17;;;;;;;21.20;57.22;96599.00;2071483;28;20196;-68
2023/09/19 12:01:12;;;;;;;3.90;1.40;;;;;;;21.90;54.41;96590.97;2071396;28;20228;-68
2023/09/19 12:02:38;;;;;;;5.80;1.13;;;;;;;21.66;54.58;96591.41;2069190;28;20190;-68
2023/09/19 12:03:47;;;;;;;4.07;1.30;;;;;;;22.21;53.34;96595.28;2071956;28;20233;-68
2023/09/19 12:04:53;;;;;;;3.72;1.00;;;;;;;22.45;52.48;96598.34;2074676;28;20201;-68
2023/09/19 12:05:55;;;;;;;2.53;1.10;;;;;;;22.49;52.99;96585.59;2070903;28;20230;-68
2023/09/19 12:06:57;;;;;;;4.30;1.15;;;;;;;22.70;52.46;96584.56;2075849;28;20206;-68
2023/09/19 12:07:59;;;;;;;6.20;1.35;;;;;;;21.98;54.00;96587.63;2072626;28;20303;-68
2023/09/19 12:09:06;;;;;;;3.33;1.35;;;;;;;21.24;54.11;96579.16;2070151;28;20753;-68
2023/09/19 12:10:11;;;;;;;5.97;1.70;;;;;;;22.11;53.17;96582.03;2073362;28;20193;-68
2023/09/19 12:11:15;;;;;;;3.53;1.10;;;;;;;22.43;51.91;96581.69;2074410;28;20222;-68
2023/09/19 12:12:27;;;;;;;2.60;1.10;;;;;;;22.88;51.76;96581.94;2072301;28;20201;-68
2023/09/19 12:13:31;;;;;;;3.92;1.17;;;;;;;22.99;51.03;96574.63;2067393;28;20209;-68
2023/09/19 12:14:33;;;;;;;5.57;1.63;;;;;;;23.40;49.90;96568.09;2072327;28;20569;-68
2023/09/19 12:15:38;;;;;;;1.80;1.00;;;;;;;23.92;49.69;96572.78;2069779;28;20252;-68
2023/09/19 12:16:40;;;;;;;9.52;1.33;;;;;;;23.35;50.25;96565.91;2073352;28;20231;-68
2023/09/19 12:17:43;;;;;;;2.70;1.15;;;;;;;23.51;50.42;96559.88;2067915;28;20268;-68
2023/09/19 12:18:46;;;;;;;2.65;1.13;;;;;;;22.82;51.44;96570.09;2071107;28;20198;-68
2023/09/19 12:19:52;;;;;;;1.92;0.98;;;;;;;22.46;50.99;96573.44;2071098;28;20272;-69
2023/09/19 12:20:55;;;;;;;2.50;1.15;;;;;;;22.59;51.10;96580.25;2072783;28;20231;-68
2023/09/19 12:22:04;;;;;;;2.92;1.15;;;;;;;22.64;50.66;96572.69;2075462;28;20201;-68
2023/09/19 12:23:13;;;;;;;3.65;1.00;;;;;;;22.31;50.80;96575.69;2072281;28;20249;-68
2023/09/19 12:24:19;;;;;;;2.55;1.02;;;;;;;22.76;51.25;96566.16;2070487;28;20606;-68
2023/09/19 12:25:21;;;;;;;2.67;1.10;;;;;;;23.05;50.96;96559.03;2075921;28;20822;-69